Tiempo atmosférico en la estación meteorológica de Cuenca, Cuenca (945 m.)

Fecha
DESCASC
Temp. máxima en grados centígrados (hora)
DESCASC
Temp. mínima en grados centígrados (hora)
DESCASC
Temp. media en grados centígrados
DESCASC
Racha de viento máxima en m/sg (hora)
DESCASC
Velocidad máxima media en intervalos de 10 minutos(hora)
DESCASC
Precipitaciones diarias en mm
DESCASC
Precipitaciones de 00:00 a 06:00 en mm
DESCASC
Precipitaciones de 06:00 a 12:00 en mm
DESCASC
Precipitaciones de 12:00 a 18:00 en mm
DESCASC
Precipitaciones de 18:00 a 24:00 en mm
DESCASC
22-10-2017 20.1 (16:50) 7.1 (09:10) 13.6 6.67 (13:50) 3.33 (16:20) 0 0 0 0 0
21-10-2017 20.4 (16:50) 8.4 (04:40) 14.4 5 (16:10) 2.5 (16:10) 0 0 0 0 0
20-10-2017 20.8 (16:40) 7.6 (09:30) 14.2 6.39 (17:00) 3.33 (18:30) 0 0 0 0 0
19-10-2017 15 (17:50) 6.7 (00:00) 10.8 9.17 (17:30) 4.17 (17:30) 0 0 0 0 0
18-10-2017 14.9 (00:40) 8.4 (00:00) 11.6 11.94 (09:10) 5.28 (09:10) 21.6 2 9.8 9.2 0.6
17-10-2017 21.3 (16:40) 9.5 (00:00) 15.4 9.44 (19:10) 3.61 (10:50) 2 0 0 0 2
16-10-2017 26.3 (17:10) 11.3 (00:00) 18.8 6.39 (21:00) 3.61 (05:00) 0 0 0 0 0
15-10-2017 27.5 (15:30) 11.3 (00:00) 19.4 8.33 (13:00) 4.72 (16:30) 0 0 0 0 0
14-10-2017 28.8 (16:10) 9.9 (00:00) 19.3 6.39 (16:20) 2.5 (14:30) 0 0 0 0 0
13-10-2017 29.2 (16:00) 11.5 (00:00) 20.4 6.39 (16:10) 3.06 (16:10) 0 0 0 0 0
12-10-2017 29.3 (16:20) 8.5 (00:00) 18.9 6.67 (15:40) 3.06 (16:50) 0 0 0 0 0
11-10-2017 27.6 (15:50) 8.4 (00:00) 18 6.67 (14:30) 3.06 (17:20) 0 0 0 0 0
10-10-2017 28.1 (17:10) 7.3 (00:00) 17.7 5.83 (17:30) 1.94 (15:20) 0 0 0 0 0
09-10-2017 27.2 (15:40) 7.7 (00:00) 17.5 7.78 (17:30) 4.17 (14:50) 0 0 0 0 0
08-10-2017 26.7 (16:30) 12.1 (00:00) 19.4 7.5 (18:40) 3.61 (15:20) 0 0 0 0 0
07-10-2017 24.8 (17:10) 7.9 (00:00) 16.3 7.22 (12:00) 3.61 (11:50) 0 0 0 0 0
06-10-2017 29.1 (16:10) 9.9 (00:00) 19.5 8.33 (17:40) 3.33 (21:20) 0 0 0 0 0
05-10-2017 29.6 (16:20) 12.6 (00:00) 21.1 6.67 (15:20) 3.33 (14:30) 0 0 0 0 0
04-10-2017 28.1 (16:50) 15.4 (00:00) 21.8 8.06 (10:40) 3.89 (10:30) 0 0 0 0 0
03-10-2017 29.3 (18:30) 12.2 (00:00) 20.7 9.17 (16:20) 4.17 (16:20) 0.2 0 0 0 0.2
02-10-2017 27.9 (16:40) 12.5 (00:00) 20.2 7.22 (13:10) 3.06 (12:50) 0 0 0 0 0
01-10-2017 25.7 (17:10) 14.9 (00:00) 20.3 7.22 (18:10) 3.61 (18:10) 0 0 0 0 0
30-09-2017 26.1 (17:40) 12.9 (00:00) 19.5 7.22 (14:50) 2.78 (15:30) 0 0 0 0 0
29-09-2017 28.6 (16:20) 12 (00:00) 20.3 6.11 (15:20) 2.78 (15:40) 0 0 0 0 0
28-09-2017 27.9 (17:10) 12.1 (00:00) 20 5.83 (01:00) 3.06 (21:00) 0 0 0 0 0
27-09-2017 26.1 (17:00) 13.5 (00:00) 19.8 6.11 (10:30) 3.33 (11:10) 0 0 0 0 0
26-09-2017 25.9 (17:20) 10.2 (00:00) 18 7.22 (17:00) 3.33 (22:10) 0 0 0 0 0
25-09-2017 27.2 (15:00) 11.7 (00:00) 19.5 9.44 (15:30) 4.72 (15:30) 0 0 0 0 0
24-09-2017 28.6 (16:30) 11.3 (00:00) 20 7.22 (15:10) 3.61 (15:10) 0 0 0 0 0
23-09-2017 27.2 (16:40) 10.2 (00:00) 18.7 5.28 (12:30) 2.78 (12:20) 0 0 0 0 0

Gráficas

Temp. máximas Temp. mínimas Temp. medias Precipitaciones Rachas de viento máximas Velocidades máximas media en intervalos de 10 minutos

Datos horarios

Fecha y hora oficial Temperatura (ºC) Velocidad del viento (km/h) Dirección del viento Racha (km/h) Dirección de racha Precipitación (mm) Presión (hPa) Tendencia (hPa) Humedad (%)
2017-10-22 23:00:00 10.1 2 Sudoeste 5 Sur 0 917.7 0.7 68
2017-10-22 22:00:00 11.1 2 Noroeste 10 Norte 0 917.4 1.2 63
2017-10-22 21:00:00 13.1 5 Norte 11 Norte 0 917.1 1.2 54
2017-10-22 20:00:00 15.1 3 Norte 14 Noroeste 0 917 1 46
2017-10-22 19:00:00 17.3 5 Noroeste 22 Oeste 0 916.2 -0.1 39
2017-10-22 18:00:00 19.1 10 Noroeste 21 Norte 0 915.9 -0.6 32
2017-10-22 17:00:00 19.9 9 Noroeste 24 Noroeste 0 916 -1.3 34
2017-10-22 16:00:00 19.7 8 Oeste 17 Sudoeste 0 916.3 -1.7 36
2017-10-22 15:00:00 19.2 6 Oeste 18 Noroeste 0 916.5 -1.7 39
2017-10-22 14:00:00 18.3 8 Noroeste 24 Noroeste 0 917.3 -0.9 43
2017-10-22 13:00:00 16.9 5 Oeste 11 Sudoeste 0 918 0 54
2017-10-22 12:00:00 14 4 Oeste 8 Oeste 0 918.2 0.8 64
2017-10-22 11:00:00 11.9 3 Sur 7 Sur 0 918.2 1.2 78
2017-10-22 10:00:00 8.3 3 Sur 5 Sudoeste 0 918 1.2 89
2017-10-22 09:00:00 7.2 2 Este 12 Norte 0 917.4 0.8 92
2017-10-22 08:00:00 7.8 2 Noroeste 6 Norte 0 917 0.7 92
2017-10-22 07:00:00 8.5 0 Calma 7 Norte 0 916.8 0 90
2017-10-22 06:00:00 9.2 5 Oeste 12 Nordeste 0 916.6 -0.2 89
2017-10-22 05:00:00 10.1 3 Norte 12 Norte 0 916.3 -0.3 90
2017-10-22 04:00:00 10.8 4 Noroeste 9 Noroeste 0 916.8 0.3 85
2017-10-22 03:00:00 12 3 Oeste 21 Nordeste 0 916.8 0.1 81
2017-10-22 02:00:00 12.6 9 Nordeste 23 Norte 0 916.6 0.2 82
2017-10-22 01:00:00 13.2 8 Nordeste 21 Nordeste 0 916.5 0.4 83
2017-10-22 00:00:00 13.2 7 Norte 15 Nordeste 0 916.7 0.8 89
2017-10-21 23:00:00 13.9 2 Sudoeste 7 Norte 0 916.4 1 85
2017-10-21 22:00:00 14.6 4 Norte 12 Nordeste 0 916.1 1.1 84
2017-10-21 21:00:00 15.6 4 Nordeste 12 Este 0 915.9 0.9 80
2017-10-21 20:00:00 16.7 5 Nordeste 11 Nordeste 0 915.4 0.3 76
2017-10-21 19:00:00 18.2 5 Norte 9 Nordeste 0 915 -0.2 70
2017-10-21 18:00:00 19.2 3 Norte 17 Norte 0 915 -0.6 66
2017-10-21 17:00:00 19.9 7 Noroeste 18 Noroeste 0 915.1 -1 59
2017-10-21 16:00:00 19.2 5 Noroeste 15 Noroeste 0 915.2 -1.6 63
2017-10-21 15:00:00 18 5 Noroeste 15 Oeste 0 915.6 -1.3 74
2017-10-21 14:00:00 17.7 3 Noroeste 9 Noroeste 0 916.1 -0.7 76
2017-10-21 13:00:00 15.1 2 Sur 6 Sudeste 0 916.8 0.3 88
2017-10-21 12:00:00 13.7 0 Calma 5 Oeste 0 916.9 0.9 92
2017-10-21 11:00:00 12.2 2 Sudeste 5 Sudeste 0 916.8 1.1 95
2017-10-21 10:00:00 11.1 5 Sur 14 Noroeste 0 916.5 1 98
2017-10-21 09:00:00 10.7 2 Sur 3 Sur 0 916 0.8 96
2017-10-21 08:00:00 10.3 0 Calma 6 Este 0 915.7 0.8 94
2017-10-21 07:00:00 9.8 2 Sudeste 7 Norte 0 915.5 0.4 94
2017-10-21 06:00:00 9.6 5 Norte 12 Norte 0 915.2 -0.1 94
2017-10-21 05:00:00 8.6 3 Sudeste 9 Norte 0 914.9 -0.4 94
2017-10-21 04:00:00 8.9 2 Sur 5 Sudoeste 0 915.1 -0.5 94
2017-10-21 03:00:00 9.4 2 Sudoeste 7 Norte 0 915.3 -0.5 92
2017-10-21 02:00:00 10.1 4 Norte 12 Norte 0 915.3 -0.1 91
2017-10-21 01:00:00 10.5 5 Norte 13 Norte 0 915.6 0.4 90
2017-10-21 00:00:00 11.1 5 Norte 10 Norte 0 915.8 1.2 87
2017-10-20 23:00:00 12 0 Calma 7 Norte 0 915.4 1.2 85
2017-10-20 22:00:00 13.1 0 Calma 6 Norte 0 915.2 1.7 83
2017-10-20 21:00:00 14.1 5 Oeste 10 Noroeste 0 914.6 1.3 77
2017-10-20 20:00:00 15.4 4 Noroeste 17 Noroeste 0 914.2 1 70
2017-10-20 19:00:00 17.2 8 Noroeste 22 Noroeste 0 913.5 0.6 62
2017-10-20 18:00:00 19.1 9 Noroeste 22 Noroeste 0 913.3 0.4 53
2017-10-20 17:00:00 20.5 9 Noroeste 23 Noroeste 0 913.2 0.1 50
2017-10-20 16:00:00 20 8 Oeste 20 Noroeste 0 912.9 -0.5 53
2017-10-20 15:00:00 20.3 6 Noroeste 21 Noroeste 0 912.9 -0.6 49
2017-10-20 14:00:00 18.9 9 Oeste 21 Noroeste 0 913.1 0.2 57
2017-10-20 13:00:00 17.7 6 Noroeste 14 Noroeste 0 913.4 1.1 60
2017-10-20 12:00:00 16.2 5 Sudoeste 10 Oeste 0 913.5 2 62
2017-10-20 11:00:00 13.3 5 Noroeste 9 Oeste 0 912.9 1.9 71
2017-10-20 10:00:00 9.6 4 Oeste 9 Oeste 0 912.3 1.8 83
2017-10-20 09:00:00 7.7 2 Noroeste 11 Noroeste 0 911.5 1.5 87
2017-10-20 08:00:00 7.9 3 Noroeste 10 Noroeste 0 911 1.1 85
2017-10-20 07:00:00 8.1 4 Noroeste 15 Norte 0 910.5 0.6 83
2017-10-20 06:00:00 8.2 4 Noroeste 11 Norte 0 910 0.1 83
2017-10-20 05:00:00 8.3 4 Noroeste 14 Nordeste 0 909.9 0.4 81
2017-10-20 04:00:00 8.4 5 Norte 13 Norte 0 909.9 0.5 79
2017-10-20 03:00:00 8.5 5 Noroeste 13 Noroeste 0 909.9 1.1 80
2017-10-20 02:00:00 8.9 3 Noroeste 14 Norte 0 909.5 1.1 78
2017-10-20 01:00:00 9.1 3 Noroeste 10 Noroeste 0 909.4 1.6 79
2017-10-20 00:00:00 9.9 3 Norte 12 Norte 0 908.8 1.6 77
2017-10-19 23:00:00 10.4 7 Noroeste 14 Noroeste 0 908.4 1.8 76
2017-10-19 22:00:00 11.4 8 Noroeste 18 Noroeste 0 907.8 2 71
2017-10-19 21:00:00 11.9 5 Noroeste 16 Noroeste 0 907.2 2 68
2017-10-19 20:00:00 12.3 5 Noroeste 20 Oeste 0 906.6 1.7 68
2017-10-19 19:00:00 13.5 9 Noroeste 29 Noroeste 0 905.8 0.9 61
2017-10-19 18:00:00 14.7 9 Noroeste 33 Noroeste 0 905.2 0.1 57
2017-10-19 17:00:00 14.3 11 Noroeste 29 Noroeste 0 904.9 -0.3 59
2017-10-19 16:00:00 13 9 Noroeste 23 Noroeste 0 904.9 -0.6 64
2017-10-19 15:00:00 12.9 8 Noroeste 27 Noroeste 0 905.1 -0.4 61
2017-10-19 14:00:00 14.5 12 Noroeste 28 Noroeste 0 905.2 -0.5 58
2017-10-19 13:00:00 13.1 13 Noroeste 27 Noroeste 0 905.5 0.3 67
2017-10-19 12:00:00 11.2 5 Noroeste 13 Oeste 0 905.5 1.1 80
2017-10-19 11:00:00 8.8 3 Norte 10 Noroeste 0 905.7 1.4 90
2017-10-19 10:00:00 7.6 2 Noroeste 7 Oeste 0 905.2 0.9 95
2017-10-19 09:00:00 7.1 3 Noroeste 10 Noroeste 0 904.4 0.1 97
2017-10-19 08:00:00 6.7 2 Noroeste 7 Noroeste 0 904.3 0.2 98
2017-10-19 07:00:00 7 4 Sudoeste 6 Oeste 0 904.3 -0.2 97
2017-10-19 06:00:00 7.2 3 Oeste 7 Oeste 0 904.3 -0.6 97
2017-10-19 05:00:00 7.6 2 Noroeste 5 Norte 0 904.1 -1.1 97
2017-10-19 04:00:00 7.9 0 Calma 5 Oeste 0 904.5 -0.9 95
2017-10-19 03:00:00 8.1 3 Oeste 5 Sudeste 0 904.9 -0.7 95
2017-10-19 02:00:00 8.1 3 Sudeste 6 Este 0 905.2 -0.6 93
2017-10-19 01:00:00 8.4 2 Sudeste 10 Norte 0 905.4 0 93
2017-10-19 00:00:00 8.5 3 Norte 10 Norte 0 905.6 0.4 88
2017-10-18 23:00:00 8.5 3 Noroeste 9 Noroeste 0 905.8 1 90
2017-10-18 22:00:00 9.1 3 Noroeste 8 Oeste 0 905.4 1 90
2017-10-18 21:00:00 9.4 3 Oeste 8 Sudoeste 0 905.2 1.1 89
2017-10-18 20:00:00 10 3 Oeste 10 Noroeste 0 904.8 0.8 88
2017-10-18 19:00:00 11 4 Norte 22 Oeste 0.6 904.4 0.3 91
2017-10-18 18:00:00 11.5 10 Sudoeste 24 Sudoeste 0.2 904.1 -0.1 88
2017-10-18 17:00:00 11.7 6 Sur 14 Oeste 0.4 904 -1.5 91
2017-10-18 16:00:00 11.1 6 Oeste 26 Noroeste 6.4 904.1 -2.4 95
2017-10-18 15:00:00 12.5 9 Sur 21 Sur 0.4 904.2 -3 93
2017-10-18 14:00:00 12 12 Sur 26 Sur 0.6 905.5 -2.3 92
2017-10-18 13:00:00 11.8 14 Sur 30 Sur 1.2 906.5 -1.5 92
2017-10-18 12:00:00 11.7 9 Sur 24 Sur 2 907.2 -0.7 96
2017-10-18 11:00:00 11.8 9 Sur 21 Sudeste 1 907.8 0.1 94
2017-10-18 10:00:00 11.7 10 Sur 43 Sudoeste 1.8 908 0.5 94
2017-10-18 09:00:00 12.3 12 Sur 26 Sur 3 907.9 -0.7 94
2017-10-18 08:00:00 13 12 Sudeste 28 Sudeste 0.4 907.7 -0.9 90
2017-10-18 07:00:00 13.1 9 Sudeste 27 Sur 1.6 907.5 -2 93
2017-10-18 06:00:00 13.6 16 Sudeste 27 Sur 1.6 908.6 -1.5 93
2017-10-18 05:00:00 13.9 10 Sudeste 20 Sudeste 0 908.6 -1.6 90
2017-10-18 04:00:00 13.7 10 Sudeste 18 Sudeste 0.4 909.5 -1.6 88
2017-10-18 03:00:00 14.2 5 Sur 17 Sudeste 0 910.1 -1.8 80
2017-10-18 02:00:00 14.3 9 Sudeste 20 Sudeste 0 910.2 -2 80
2017-10-18 01:00:00 14.8 9 Sudeste 22 Sudeste 0 911.1 -1.1 76
2017-10-18 00:00:00 14.6 9 Sudeste 17 Sudeste 0 911.9 -0.4 75
2017-10-17 23:00:00 14.1 7 Sudeste 15 Sudeste 0 912.2 -0.4 81
2017-10-17 22:00:00 14.4 2 Noroeste 13 Sudeste 0 912.2 0.6 85
2017-10-17 21:00:00 14.3 8 Sudeste 15 Sudeste 0 912.3 0.2 85
2017-10-17 20:00:00 15.5 4 Sudeste 34 Oeste 2 912.6 0.3 85
2017-10-17 19:00:00 19.6 8 Sur 17 Sur 0 911.6 -1.2 48
2017-10-17 18:00:00 20 9 Sur 19 Sur 0 912.1 -1.5 46
2017-10-17 17:00:00 20.7 9 Sur 18 Sudoeste 0 912.3 -2 42
2017-10-17 16:00:00 20.9 10 Sur 19 Sur 0 912.8 -2.4 41
2017-10-17 15:00:00 20.1 7 Sur 18 Sur 0 913.6 -2.1 48
2017-10-17 14:00:00 19.2 11 Sudeste 21 Sudeste 0 914.3 -1.7 52
2017-10-17 13:00:00 18 10 Sudeste 23 Sudeste 0 915.2 -0.8 56
2017-10-17 12:00:00 17.3 10 Sudeste 22 Sudeste 0 915.7 -0.2 58
2017-10-17 11:00:00 15 11 Sudeste 25 Sur 0 916 0.6 67
2017-10-17 10:00:00 12.3 9 Sur 18 Sur 0 916 0.5 79
2017-10-17 09:00:00 9.8 5 Sudeste 8 Sudeste 0 915.9 0.1 89
2017-10-17 08:00:00 9.6 0 Calma 5 Nordeste 0 915.4 -0.5 83
2017-10-17 07:00:00 9.6 2 Sudoeste 6 Sudeste 0 915.5 -0.8 83
2017-10-17 06:00:00 10 2 Noroeste 9 Sur 0 915.8 -0.9 83
2017-10-17 05:00:00 10.2 2 Sur 6 Sudeste 0 915.9 -1.1 84
2017-10-17 04:00:00 11.1 4 Sudeste 7 Sudeste 0 916.3 -1.2 81
2017-10-17 03:00:00 11.7 3 Este 8 Sudoeste 0 916.7 -1 80
2017-10-17 02:00:00 12.6 2 Oeste 8 Sur 0 917 -0.5 76
2017-10-17 01:00:00 13.3 4 Este 12 Sudeste 0 917.5 0 76
2017-10-17 00:00:00 14.7 5 Sudeste 16 Sudeste 0 917.7 0.6 70
2017-10-16 23:00:00 15.7 7 Sudeste 19 Sudeste 0 917.5 0.7 65
2017-10-16 22:00:00 17 9 Sudeste 17 Sudeste 0 917.5 1 60
2017-10-16 21:00:00 18.9 11 Sur 23 Sudeste 0 917.1 0.9 49
2017-10-16 20:00:00 20.9 5 Sur 17 Sudoeste 0 916.8 0.6 41
2017-10-16 19:00:00 23.1 7 Sudoeste 22 Oeste 0 916.5 -0.2 36
2017-10-16 18:00:00 25.2 10 Oeste 18 Noroeste 0 916.2 -1 30
2017-10-16 17:00:00 26.2 4 Noroeste 13 Sudoeste 0 916.2 -1.8 27
2017-10-16 16:00:00 25.7 6 Sudoeste 15 Sur 0 916.7 -2.1 29
2017-10-16 15:00:00 25 5 Sur 18 Sur 0 917.2 -1.9 31
2017-10-16 14:00:00 23.4 8 Sur 20 Sudeste 0 918 -1.3 38
2017-10-16 13:00:00 21.7 8 Sudeste 19 Sur 0 918.8 -0.3 45
2017-10-16 12:00:00 19.5 8 Sur 16 Sur 0 919.1 0.5 50
2017-10-16 11:00:00 16.5 5 Sur 9 Sur 0 919.3 1.2 65
2017-10-16 10:00:00 13.1 3 Oeste 5 Sudoeste 0 919.1 1.4 81
2017-10-16 09:00:00 11.3 2 Sudeste 9 Noroeste 0 918.6 1 88
2017-10-16 08:00:00 11.6 5 Noroeste 10 Oeste 0 918.1 0.2 88
2017-10-16 07:00:00 11.7 0 Calma 13 Sudeste 0 917.7 -0.2 86
2017-10-16 06:00:00 12.2 8 Sudeste 21 Sudeste 0 917.6 -0.4 89
2017-10-16 05:00:00 12.5 13 Sur 22 Sur 0 917.9 -0.3 90
2017-10-16 04:00:00 12.9 6 Sudeste 16 Sur 0 917.9 -0.6 87
2017-10-16 03:00:00 14.3 3 Sur 15 Sur 0 918 -0.3 76
2017-10-16 02:00:00 15.3 8 Sur 14 Sur 0 918.2 0.1 72
2017-10-16 01:00:00 15.9 5 Sur 18 Sudeste 0 918.5 0.5 71
2017-10-16 00:00:00 17.2 9 Sudeste 24 Sudeste 0 918.3 0.5 66
2017-10-15 23:00:00 18.2 12 Sudeste 29 Sudeste 0 918.1 0.7 64
2017-10-15 22:00:00 19.2 12 Sudeste 25 Sudeste 0 918 0.8 56
2017-10-15 21:00:00 20.2 7 Sudeste 17 Sudeste 0 917.8 0.8 40
2017-10-15 20:00:00 21.8 6 Sudeste 20 Sur 0 917.4 0.5 34
2017-10-15 19:00:00 24.3 12 Sur 26 Sur 0 917.2 0 29
2017-10-15 18:00:00 26.2 13 Sur 27 Sur 0 917 -0.6 24
2017-10-15 17:00:00 27.2 11 Sur 28 Sudeste 0 916.9 -1.6 22
2017-10-15 16:00:00 27.5 14 Sur 26 Sudeste 0 917.2 -2.1 21
2017-10-15 15:00:00 26.9 13 Sudeste 28 Sur 0 917.6 -2.1 24
2017-10-15 14:00:00 26 11 Sur 27 Sur 0 918.5 -1.3 23
2017-10-15 13:00:00 23.9 13 Sudeste 30 Sudeste 0 919.3 -0.4 30
2017-10-15 12:00:00 22.4 10 Sur 23 Sur 0 919.7 0.2 31
2017-10-15 11:00:00 18.7 5 Sur 10 Sur 0 919.8 0.3 55
2017-10-15 10:00:00 14 2 Oeste 5 Sudoeste 0 919.7 0.4 72
2017-10-15 09:00:00 11.5 0 Calma 4 Sudoeste 0 919.5 0.5 82
2017-10-15 08:00:00 11.5 0 Calma 2 Sudoeste 0 919.5 0.7 82
2017-10-15 07:00:00 12.1 0 Calma 3 Noroeste 0 919.3 0.2 82
2017-10-15 06:00:00 12.6 0 Calma 2 Oeste 0 919 -0.3 78
2017-10-15 05:00:00 13.3 0 Calma 2 Sudoeste 0 918.8 -0.5 79
2017-10-15 04:00:00 14.3 0 Calma 3 Noroeste 0 919.1 -0.3 76
2017-10-15 03:00:00 15.2 0 Calma 5 Norte 0 919.3 -0.1 74
2017-10-15 02:00:00 16 2 Oeste 5 Oeste 0 919.3 0.1 70
2017-10-15 01:00:00 17.1 4 Oeste 8 Oeste 0 919.4 0.6 64
2017-10-15 00:00:00 18.3 5 Sur 17 Sudeste 0 919.4 1.3 59
2017-10-14 23:00:00 19.5 8 Sur 17 Sudeste 0 919.2 1.5 53
2017-10-14 22:00:00 20.1 9 Sudeste 15 Sudeste 0 918.8 1.6 41
2017-10-14 21:00:00 21.7 5 Sudeste 12 Sudeste 0 918.1 1.2 29
2017-10-14 20:00:00 24 6 Sudeste 11 Sudoeste 0 917.7 0.6 25
2017-10-14 19:00:00 26.7 6 Sudoeste 17 Sur 0 917.2 -0.1 22
2017-10-14 18:00:00 28.4 5 Oeste 20 Oeste 0 916.9 -0.7 20
2017-10-14 17:00:00 28.7 8 Sudoeste 23 Sudoeste 0 917.1 -1.1 20
2017-10-14 16:00:00 28.7 6 Sudoeste 18 Oeste 0 917.3 -1.6 22
2017-10-14 15:00:00 28 8 Sur 17 Sudoeste 0 917.6 -1.6 21
2017-10-14 14:00:00 27.3 5 Sudoeste 16 Sudoeste 0 918.2 -1 23
2017-10-14 13:00:00 25.6 6 Sudoeste 14 Sudoeste 0 918.9 -0.2 27
2017-10-14 12:00:00 22.2 4 Sur 6 Sudoeste 0 919.2 0.5 40
2017-10-14 11:00:00 17.1 3 Oeste 7 Oeste 0 919.2 0.9 51
2017-10-14 10:00:00 12.7 2 Oeste 4 Oeste 0 919.1 0.9 63
2017-10-14 09:00:00 10 0 Calma 3 Oeste 0 918.7 0.6 70
2017-10-14 08:00:00 10.2 0 Calma 4 Este 0 918.3 0.3 67
2017-10-14 07:00:00 10.8 0 Calma 4 Oeste 0 918.2 0.1 63
2017-10-14 06:00:00 11.5 0 Calma 3 Sur 0 918.1 -0.4 61
2017-10-14 05:00:00 12.2 0 Calma 4 Oeste 0 918 -0.6 56
2017-10-14 04:00:00 13.2 0 Calma 3 Norte 0 918.1 -0.7 53
2017-10-14 03:00:00 13.8 0 Calma 3 Sudoeste 0 918.5 0.1 50
2017-10-14 02:00:00 14.8 0 Calma 4 Noroeste 0 918.6 0.5 46
2017-10-14 01:00:00 15.4 3 Norte 6 Norte 0 918.8 1 44
2017-10-14 00:00:00 16.2 3 Norte 10 Norte 0 918.4 0.8 40
2017-10-13 23:00:00 17.5 4 Norte 8 Norte 0 918.1 0.7 37
2017-10-13 22:00:00 19.2 0 Calma 3 Noroeste 0 917.8 0.8 34
2017-10-13 21:00:00 21.7 0 Calma 4 Norte 0 917.6 0.7 30
2017-10-13 20:00:00 24.5 0 Calma 10 Sudoeste 0 917.4 0.4 25
2017-10-13 19:00:00 26.9 7 Sudoeste 19 Sudoeste 0 917 -0.2 21
2017-10-13 18:00:00 28.3 9 Oeste 19 Oeste 0 916.9 -1 19
2017-10-13 17:00:00 28.8 10 Sudoeste 23 Sudoeste 0 917 -1.5 20
2017-10-13 16:00:00 29.2 7 Sudoeste 19 Oeste 0 917.2 -1.9 20
2017-10-13 15:00:00 28.4 6 Oeste 18 Sudoeste 0 917.9 -1.6 23
2017-10-13 14:00:00 27.9 8 Oeste 18 Sudoeste 0 918.5 -1.2 23
2017-10-13 13:00:00 26.6 5 Sur 13 Sur 0 919.1 -0.4 29
2017-10-13 12:00:00 23.1 3 Sur 5 Sur 0 919.5 0.3 42
2017-10-13 11:00:00 18.4 3 Oeste 6 Oeste 0 919.7 0.7 52
2017-10-13 10:00:00 14.1 2 Oeste 4 Sudoeste 0 919.5 0.5 65
2017-10-13 09:00:00 11.6 0 Calma 5 Sudoeste 0 919.2 0.4 73
2017-10-13 08:00:00 11.8 4 Sur 8 Sudoeste 0 919 0.2 72
2017-10-13 07:00:00 12 0 Calma 3 Oeste 0 919 0 68
2017-10-13 06:00:00 12.7 0 Calma 2 Noroeste 0 918.8 -0.3 65
2017-10-13 05:00:00 13.5 0 Calma 3 Sudeste 0 918.8 -0.2 60
2017-10-13 04:00:00 14.4 0 Calma 4 Nordeste 0 919 -0.1 56
2017-10-13 03:00:00 15.2 0 Calma 5 Noroeste 0 919.1 0.1 56
2017-10-13 02:00:00 15.7 0 Calma 6 Norte 0 919 0.1 46
2017-10-13 01:00:00 16.4 2 Oeste 8 Norte 0 919.1 0.5 39
2017-10-13 00:00:00 17.2 2 Norte 5 Norte 0 919 0.8 37
2017-10-12 23:00:00 18.3 0 Calma 7 Norte 0 918.9 0.7 34
2017-10-12 22:00:00 20 2 Noroeste 6 Norte 0 918.6 0.7 30
2017-10-12 21:00:00 21.8 0 Calma 5 Norte 0 918.2 0.4 27
2017-10-12 20:00:00 24.6 3 Norte 13 Noroeste 0 918.2 0.2 22
2017-10-12 19:00:00 27.1 6 Oeste 14 Noroeste 0 917.9 -0.2 19
2017-10-12 18:00:00 28 3 Noroeste 18 Oeste 0 917.8 -0.7 19
2017-10-12 17:00:00 27.5 9 Oeste 23 Oeste 0 918 -1.2 19
2017-10-12 16:00:00 28.5 10 Oeste 24 Oeste 0 918.1 -1.6 18
2017-10-12 15:00:00 27.2 8 Sudoeste 18 Oeste 0 918.5 -1.3 18
2017-10-12 14:00:00 27.2 4 Oeste 9 Oeste 0 919.2 -0.4 19
2017-10-12 13:00:00 25.3 3 Sur 8 Sudoeste 0 919.7 0.4 22
2017-10-12 12:00:00 20.7 3 Sudoeste 7 Noroeste 0 919.8 0.9 29
2017-10-12 11:00:00 16.3 2 Sudoeste 6 Noroeste 0 919.6 1.2 36
2017-10-12 10:00:00 11.4 0 Calma 4 Sudoeste 0 919.3 1.3 47
2017-10-12 09:00:00 8.7 0 Calma 4 Sudoeste 0 918.9 1.1 53
2017-10-12 08:00:00 8.8 2 Norte 5 Norte 0 918.4 0.8 53
2017-10-12 07:00:00 9.1 0 Calma 3 Sudeste 0 918 0.3 51
2017-10-12 06:00:00 9.6 0 Calma 3 Noroeste 0 917.8 0.1 49
2017-10-12 05:00:00 10.2 0 Calma 6 Norte 0 917.6 -0.2 46
2017-10-12 04:00:00 11 3 Nordeste 5 Sudoeste 0 917.7 0.1 44
2017-10-12 03:00:00 11.8 2 Norte 5 Norte 0 917.7 0.4 41
2017-10-12 02:00:00 12.5 2 Nordeste 11 Norte 0 917.8 0.6 39
2017-10-12 01:00:00 13.4 0 Calma 6 Norte 0 917.6 0.9 38
2017-10-12 00:00:00 14.5 3 Nordeste 6 Norte 0 917.3 1.1 36
2017-10-11 23:00:00 16 3 Oeste 5 Oeste 0 917.2 1.4 33
2017-10-11 22:00:00 18 0 Calma 3 Noroeste 0 916.7 1.4 29
2017-10-11 21:00:00 20.5 0 Calma 8 Oeste 0 916.2 1.2 25
2017-10-11 20:00:00 22.9 5 Sudoeste 15 Sudoeste 0 915.8 1 20
2017-10-11 19:00:00 25.4 6 Oeste 17 Sudoeste 0 915.3 0.3 19
2017-10-11 18:00:00 26.8 9 Sudoeste 20 Sudoeste 0 915 -0.2 18
2017-10-11 17:00:00 27.3 7 Oeste 21 Oeste 0 914.8 -0.8 18
2017-10-11 16:00:00 27.3 10 Oeste 23 Oeste 0 915 -1.1 17
2017-10-11 15:00:00 27.2 11 Sudoeste 24 Oeste 0 915.2 -1.1 15
2017-10-11 14:00:00 26.7 6 Sudoeste 16 Sudoeste 0 915.6 -0.8 20
2017-10-11 13:00:00 24.7 4 Sur 11 Sur 0 916.1 -0.1 28
2017-10-11 12:00:00 20.1 4 Sudoeste 6 Sudoeste 0 916.3 0.6 42
2017-10-11 11:00:00 15.7 3 Oeste 6 Oeste 0 916.4 1.2 51
2017-10-11 10:00:00 11.3 3 Sudoeste 8 Sudoeste 0 916.2 1.1 62
2017-10-11 09:00:00 8.4 3 Sur 6 Sudoeste 0 915.7 0.6 72
2017-10-11 08:00:00 8.7 2 Sur 3 Oeste 0 915.2 0.1 68
2017-10-11 07:00:00 9.1 2 Sudeste 5 Sudoeste 0 915.1 0 66
2017-10-11 06:00:00 9.5 2 Sudeste 5 Oeste 0 915.1 -0.4 62
2017-10-11 05:00:00 10 0 Calma 5 Oeste 0 915.1 -0.2 53
2017-10-11 04:00:00 11 0 Calma 5 Norte 0 915.1 -0.1 49
2017-10-11 03:00:00 11.8 0 Calma 3 Noroeste 0 915.5 0.5 44
2017-10-11 02:00:00 12.2 0 Calma 4 Noroeste 0 915.3 0.6 36
2017-10-11 01:00:00 13.1 2 Sudeste 9 Norte 0 915.2 1 34
2017-10-11 00:00:00 14.1 0 Calma 8 Nordeste 0 915 1.3 32
2017-10-10 23:00:00 15.5 0 Calma 11 Norte 0 914.7 1.4 30
2017-10-10 22:00:00 17.6 2 Norte 5 Norte 0 914.2 1.4 26
2017-10-10 21:00:00 20 5 Norte 9 Norte 0 913.7 1.1 23
2017-10-10 20:00:00 23 4 Norte 12 Oeste 0 913.3 0.8 18
2017-10-10 19:00:00 26.3 5 Noroeste 17 Norte 0 912.8 0 15
2017-10-10 18:00:00 27.3 6 Noroeste 21 Noroeste 0 912.6 -0.8 13
2017-10-10 17:00:00 28 6 Noroeste 18 Norte 0 912.5 -1.5 13
2017-10-10 16:00:00 27.4 6 Noroeste 19 Noroeste 0 912.8 -1.9 14
2017-10-10 15:00:00 26.6 6 Oeste 15 Oeste 0 913.4 -1.3 18
2017-10-10 14:00:00 25.8 4 Sur 8 Oeste 0 914 -0.7 19
2017-10-10 13:00:00 23.4 3 Sudoeste 7 Oeste 0 914.7 0.1 25
2017-10-10 12:00:00 19.5 3 Oeste 5 Oeste 0 914.7 0.5 30
2017-10-10 11:00:00 15.2 3 Sudoeste 5 Sudoeste 0 914.7 1.1 37
2017-10-10 10:00:00 10.6 0 Calma 4 Sudoeste 0 914.6 1.2 47
2017-10-10 09:00:00 7.3 0 Calma 4 Este 0 914.2 1 56
2017-10-10 08:00:00 7.6 2 Este 7 Nordeste 0 913.6 0.4 53
2017-10-10 07:00:00 8.2 0 Calma 4 Sur 0 913.4 0 50
2017-10-10 06:00:00 8.9 0 Calma 5 Norte 0 913.2 -0.5 47
2017-10-10 05:00:00 9.5 0 Calma 8 Norte 0 913.2 -0.4 44
2017-10-10 04:00:00 10.5 0 Calma 3 Sudoeste 0 913.4 -0.3 42
2017-10-10 03:00:00 11.6 0 Calma 7 Norte 0 913.7 0.1 39
2017-10-10 02:00:00 12.4 2 Norte 8 Norte 0 913.6 0.1 35
2017-10-10 01:00:00 13.1 4 Norte 9 Norte 0 913.7 0.7 32
2017-10-10 00:00:00 14.2 0 Calma 4 Este 0 913.6 1.1 28
2017-10-09 23:00:00 15.1 2 Nordeste 10 Norte 0 913.5 1.3 25
2017-10-09 22:00:00 17.4 3 Oeste 5 Oeste 0 913 1 22
2017-10-09 21:00:00 19.7 0 Calma 9 Norte 0 912.5 0.6 20
2017-10-09 20:00:00 22.3 4 Norte 16 Noroeste 0 912.2 0.1 15
2017-10-09 19:00:00 25.2 9 Noroeste 24 Noroeste 0 912 -0.3 11
2017-10-09 18:00:00 26.3 8 Noroeste 28 Noroeste 0 911.9 -0.6 9
2017-10-09 17:00:00 26.8 9 Noroeste 27 Oeste 0 912.1 -1.2 8
2017-10-09 16:00:00 26.6 12 Noroeste 28 Oeste 0 912.3 -1.6 9
2017-10-09 15:00:00 26.1 13 Noroeste 28 Noroeste 0 912.5 -1.8 11
2017-10-09 14:00:00 25.6 3 Norte 11 Oeste 0 913.3 -1 16
2017-10-09 13:00:00 23.5 4 Noroeste 9 Noroeste 0 913.9 -0.3 22
2017-10-09 12:00:00 20.5 3 Sur 6 Oeste 0 914.3 0.5 29
2017-10-09 11:00:00 15.9 3 Sur 5 Sur 0 914.3 0.9 36
2017-10-09 10:00:00 10.9 2 Noroeste 4 Noroeste 0 914.2 1 46
2017-10-09 09:00:00 7.8 2 Sudoeste 4 Sudoeste 0 913.8 1 56
2017-10-09 08:00:00 8 2 Sudoeste 4 Sudoeste 0 913.4 0.5 59
2017-10-09 07:00:00 8.4 0 Calma 5 Nordeste 0 913.2 0.2 59
2017-10-09 06:00:00 9.1 2 Nordeste 9 Nordeste 0 912.8 -0.4 55
2017-10-09 05:00:00 9.7 0 Calma 4 Sudoeste 0 912.9 -0.3 52
2017-10-09 04:00:00 10.5 2 Sudoeste 3 Norte 0 913 -0.4 52
2017-10-09 03:00:00 11.4 2 Sudoeste 4 Sudoeste 0 913.2 -0.2 49
2017-10-09 02:00:00 12.6 2 Norte 8 Norte 0 913.2 -0.2 45
2017-10-09 01:00:00 13.6 0 Calma 5 Norte 0 913.4 0.3 44
2017-10-09 00:00:00 14.7 0 Calma 9 Norte 0 913.4 0.7 41
2017-10-08 23:00:00 16.4 3 Norte 7 Norte 0 913.4 1.1 37
2017-10-08 22:00:00 18.2 2 Sudoeste 10 Norte 0 913.1 1.2 34
2017-10-08 21:00:00 20.5 3 Norte 8 Noroeste 0 912.7 1.1 31
2017-10-08 20:00:00 22.6 3 Noroeste 20 Noroeste 0 912.3 0.6 28
2017-10-08 19:00:00 25 10 Noroeste 27 Noroeste 0 911.9 -0.3 20
2017-10-08 18:00:00 26 11 Noroeste 24 Noroeste 0 911.6 -1.2 20
2017-10-08 17:00:00 26.5 10 Noroeste 24 Sudoeste 0 911.7 -1.8 19
2017-10-08 16:00:00 26.1 10 Oeste 26 Noroeste 0 912.2 -1.8 18
2017-10-08 15:00:00 25 12 Noroeste 24 Noroeste 0 912.8 -1.5 29
2017-10-08 14:00:00 24.1 9 Noroeste 21 Oeste 0 913.5 -1.1 35
2017-10-08 13:00:00 22.7 8 Noroeste 17 Oeste 0 914 -0.5 44
2017-10-08 12:00:00 20.6 5 Noroeste 11 Noroeste 0 914.3 0.2 54
2017-10-08 11:00:00 18.1 4 Norte 12 Norte 0 914.6 0.7 62
2017-10-08 10:00:00 14.3 6 Norte 17 Nordeste 0 914.5 0.5 78
2017-10-08 09:00:00 12.2 4 Nordeste 10 Este 0 914.1 0 87
2017-10-08 08:00:00 12.8 0 Calma 8 Nordeste 0 913.9 -0.3 85
2017-10-08 07:00:00 13.9 4 Nordeste 8 Sudeste 0 914 -0.6 81
2017-10-08 06:00:00 14.7 4 Sudeste 9 Sur 0 914.1 -1 80
2017-10-08 05:00:00 14.4 3 Sudeste 14 Sudeste 0 914.2 -0.9 83
2017-10-08 04:00:00 14.1 6 Sudeste 17 Sudeste 0 914.6 -0.6 85
2017-10-08 03:00:00 14.1 8 Sur 20 Sur 0 915.1 -0.1 85
2017-10-08 02:00:00 14.3 10 Sudeste 22 Sur 0 915.1 0.3 84
2017-10-08 01:00:00 13.9 8 Sur 14 Sur 0 915.2 0.8 82
2017-10-08 00:00:00 14.3 4 Sur 13 Sur 0 915.2 1.2 77
2017-10-07 23:00:00 15.6 5 Sur 13 Sur 0 914.8 1.2 70
2017-10-07 22:00:00 16.9 8 Sudeste 18 Sur 0 914.4 1.2 63
2017-10-07 21:00:00 18.5 8 Sudeste 18 Sudeste 0 914 1 55
2017-10-07 20:00:00 20.2 8 Sudeste 20 Sudeste 0 913.6 0.3 48
2017-10-07 19:00:00 23 6 Sur 15 Sur 0 913.2 -0.3 38
2017-10-07 18:00:00 23.8 5 Sur 17 Sur 0 913 -0.9 34
2017-10-07 17:00:00 24.5 8 Sur 21 Sur 0 913.3 -1.1 33
2017-10-07 16:00:00 23.8 9 Sur 19 Sur 0 913.5 -1.3 36
2017-10-07 15:00:00 23.8 9 Sur 20 Sur 0 913.9 -1.2 36
2017-10-07 14:00:00 23 10 Sudeste 20 Sur 0 914.4 -0.8 37
2017-10-07 13:00:00 21.7 10 Sur 24 Sur 0 914.8 -0.1 40
2017-10-07 12:00:00 19.7 13 Sur 26 Sur 0 915.1 0.5 39
2017-10-07 11:00:00 15.1 3 Noroeste 6 Sudoeste 0 915.2 0.9 39
2017-10-07 10:00:00 11.4 0 Calma 6 Oeste 0 914.9 1.3 51
2017-10-07 09:00:00 8.2 0 Calma 5 Norte 0 914.6 1 61
2017-10-07 08:00:00 8.4 2 Sur 4 Sudoeste 0 914.3 0.8 64
2017-10-07 07:00:00 8.7 3 Norte 6 Norte 0 913.6 0.1 59
2017-10-07 06:00:00 9.5 2 Norte 6 Norte 0 913.6 -0.3 57
2017-10-07 05:00:00 10.2 0 Calma 5 Norte 0 913.5 -0.1 60
2017-10-07 04:00:00 11.3 3 Sudeste 8 Norte 0 913.5 0.1 59
2017-10-07 03:00:00 12.7 2 Norte 8 Norte 0 913.9 0.8 57
2017-10-07 02:00:00 14 2 Sudeste 11 Norte 0 913.6 0.5 55
2017-10-07 01:00:00 15.1 6 Norte 12 Norte 0 913.4 0.6 51
2017-10-07 00:00:00 17.2 3 Noroeste 18 Nordeste 0 913.1 0.7 45
2017-10-06 23:00:00 18.7 9 Nordeste 18 Nordeste 0 913.1 1.2 41
2017-10-06 22:00:00 19.9 6 Norte 23 Norte 0 912.8 1.3 38
2017-10-06 21:00:00 21.4 9 Norte 23 Norte 0 912.4 0.9 34
2017-10-06 20:00:00 23.8 5 Noroeste 20 Noroeste 0 911.9 0.3 27
2017-10-06 19:00:00 27.1 5 Noroeste 22 Norte 0 911.5 -0.4 17
2017-10-06 18:00:00 28.3 6 Noroeste 30 Norte 0 911.5 -0.8 15
2017-10-06 17:00:00 28.8 6 Norte 23 Norte 0 911.6 -1.2 14
2017-10-06 16:00:00 28.9 7 Norte 27 Norte 0 911.9 -1.3 12
2017-10-06 15:00:00 28.8 8 Norte 28 Norte 0 912.3 -1.4 12
2017-10-06 14:00:00 28.4 7 Norte 24 Norte 0 912.8 -0.9 13
2017-10-06 13:00:00 26.7 7 Norte 22 Norte 0 913.2 -0.3 18
2017-10-06 12:00:00 23.2 4 Norte 11 Norte 0 913.7 0.4 24
2017-10-06 11:00:00 18 5 Noroeste 11 Norte 0 913.7 0.7 36
2017-10-06 10:00:00 13.4 6 Noroeste 17 Norte 0 913.5 0.5 49
2017-10-06 09:00:00 10.1 7 Norte 15 Nordeste 0 913.3 0.4 61
2017-10-06 08:00:00 10.3 5 Norte 17 Norte 0 913 0.1 68
2017-10-06 07:00:00 11.2 5 Norte 13 Norte 0 913 0 68
2017-10-06 06:00:00 12.1 5 Norte 18 Norte 0 912.9 -0.5 66
2017-10-06 05:00:00 13 5 Norte 12 Norte 0 912.9 -0.7 63
2017-10-06 04:00:00 14.7 8 Norte 22 Nordeste 0 913 -0.8 58
2017-10-06 03:00:00 15.6 2 Sur 8 Norte 0 913.4 -0.4 57
2017-10-06 02:00:00 16.9 5 Nordeste 18 Norte 0 913.6 -0.2 54
2017-10-06 01:00:00 17.7 3 Norte 8 Norte 0 913.8 0.3 51
2017-10-06 00:00:00 19.1 0 Calma 7 Norte 0 913.8 0.6 47
2017-10-05 23:00:00 20.8 3 Norte 14 Nordeste 0 913.8 0.8 42
2017-10-05 22:00:00 22.8 5 Nordeste 19 Nordeste 0 913.5 0.6 37
2017-10-05 21:00:00 24.2 8 Norte 19 Nordeste 0 913.2 0 34
2017-10-05 20:00:00 25.6 5 Norte 18 Norte 0 913 -0.6 32
2017-10-05 19:00:00 28.5 6 Noroeste 20 Noroeste 0 912.9 -1.3 28
2017-10-05 18:00:00 29.5 6 Norte 19 Norte 0 913.2 -1.7 26
2017-10-05 17:00:00 29.2 6 Noroeste 19 Norte 0 913.6 -2.3 26
2017-10-05 16:00:00 29.3 5 Noroeste 24 Nordeste 0 914.2 -2.5 19
2017-10-05 15:00:00 27.7 8 Nordeste 22 Norte 0 914.9 -2.3 27
2017-10-05 14:00:00 27 7 Noroeste 14 Noroeste 0 915.9 -1.7 32
2017-10-05 13:00:00 25.2 5 Oeste 11 Oeste 0 916.7 -0.8 39
2017-10-05 12:00:00 22.2 4 Oeste 8 Oeste 0 917.2 0.1 53
2017-10-05 11:00:00 18.9 3 Sur 7 Sur 0 917.6 0.5 66
2017-10-05 10:00:00 15.1 5 Sudeste 11 Nordeste 0 917.5 0.6 81
2017-10-05 09:00:00 12.6 3 Norte 10 Norte 0 917.1 0.4 87
2017-10-05 08:00:00 12.8 4 Sudeste 7 Norte 0 917.1 0.5 88
2017-10-05 07:00:00 13.4 3 Norte 10 Norte 0 916.9 0 87
2017-10-05 06:00:00 13.9 0 Calma 3 Nordeste 0 916.7 -0.7 87
2017-10-05 05:00:00 14.5 0 Calma 7 Oeste 0 916.6 -1.1 84
2017-10-05 04:00:00 15.2 3 Oeste 8 Sudoeste 0 916.9 -0.8 82
2017-10-05 03:00:00 16.3 3 Norte 12 Sudeste 0 917.4 -0.3 78
2017-10-05 02:00:00 17.2 5 Sudeste 18 Sudeste 0 917.7 0.1 75
2017-10-05 01:00:00 17.9 8 Sudeste 21 Sudeste 0 917.7 0.4 72
2017-10-05 00:00:00 18.8 7 Sudeste 17 Sudeste 0 917.7 0.9 63
2017-10-04 23:00:00 19.8 8 Sudeste 17 Sudeste 0 917.6 1.4 56
2017-10-04 22:00:00 20.7 7 Sudeste 14 Sudeste 0 917.3 1.5 50
2017-10-04 21:00:00 21.9 6 Sudeste 12 Sudeste 0 916.8 1.1 47
2017-10-04 20:00:00 23.9 6 Sudoeste 20 Oeste 0 916.2 0.4 43
2017-10-04 19:00:00 26.6 6 Oeste 12 Noroeste 0 915.8 -0.4 36
2017-10-04 18:00:00 26.2 5 Sur 13 Sudoeste 0 915.7 -0.8 35
2017-10-04 17:00:00 28 5 Sudoeste 17 Oeste 0 915.8 -1.4 29
2017-10-04 16:00:00 27.3 6 Sur 19 Sur 0 916.2 -1.4 36
2017-10-04 15:00:00 26.2 9 Sudeste 24 Sur 0 916.5 -1.4 41
2017-10-04 14:00:00 25.3 10 Sudeste 24 Sur 0 917.2 -0.4 44
2017-10-04 13:00:00 23.9 12 Sudeste 27 Sur 0 917.6 0.3 50
2017-10-04 12:00:00 21.9 13 Sur 26 Sur 0 917.9 1 55
2017-10-04 11:00:00 20.3 12 Sur 29 Sudeste 0 917.6 1.3 60
2017-10-04 10:00:00 17.9 10 Sur 21 Sur 0 917.3 1.4 70
2017-10-04 09:00:00 15.4 5 Sur 13 Sudeste 0 916.9 1.3 81
2017-10-04 08:00:00 15.8 7 Sudeste 16 Sudeste 0 916.3 0.7 79
2017-10-04 07:00:00 16.1 8 Sudeste 22 Sudeste 0 915.9 0.1 77
2017-10-04 06:00:00 16.2 5 Sudeste 15 Sur 0 915.6 -0.4 78
2017-10-04 05:00:00 17 9 Sudeste 19 Sur 0 915.6 -0.3 74
2017-10-04 04:00:00 17.8 8 Sur 21 Sudeste 0 915.8 -0.2 70
2017-10-04 03:00:00 18.4 10 Sudeste 24 Sudeste 0 916 0.4 69
2017-10-04 02:00:00 18.6 12 Sudeste 27 Sudeste 0 915.9 0.9 70
2017-10-04 01:00:00 19.1 7 Sudeste 21 Sur 0 916 1.8 69
2017-10-04 00:00:00 19.1 2 Este 7 Sudeste 0 915.6 1.6 64
2017-10-03 23:00:00 19.4 5 Oeste 9 Oeste 0 915 0.8 66
2017-10-03 22:00:00 20.6 3 Nordeste 13 Este 0 914.2 1.3 60
2017-10-03 21:00:00 21.4 0 Calma 9 Oeste 0 914 1.4 62
2017-10-03 20:00:00 22 5 Noroeste 31 Nordeste 0.2 914.2 1.6 62
2017-10-03 19:00:00 27.9 9 Norte 27 Nordeste 0 912.9 0 31
2017-10-03 18:00:00 28.3 8 Noroeste 26 Norte 0 912.6 -1.2 29
2017-10-03 17:00:00 29 12 Noroeste 33 Noroeste 0 912.6 -2.1 31
2017-10-03 16:00:00 28.7 12 Noroeste 27 Noroeste 0 912.9 -2.7 32
2017-10-03 15:00:00 28.2 6 Noroeste 16 Norte 0 913.8 -2.4 35
2017-10-03 14:00:00 26.5 6 Oeste 17 Oeste 0 914.7 -1.6 39
2017-10-03 13:00:00 24.6 7 Oeste 14 Noroeste 0 915.6 -0.7 45
2017-10-03 12:00:00 22.2 3 Sudeste 7 Sur 0 916.2 0 53
2017-10-03 11:00:00 19.1 2 Sudoeste 5 Sudoeste 0 916.3 0.3 63
2017-10-03 10:00:00 15.5 0 Calma 4 Oeste 0 916.3 0.4 73
2017-10-03 09:00:00 12.3 0 Calma 3 Oeste 0 916.2 0.4 83
2017-10-03 08:00:00 12.3 0 Calma 3 Sur 0 916 0.2 84
2017-10-03 07:00:00 12.8 0 Calma 5 Norte 0 915.9 -0.2 82
2017-10-03 06:00:00 13.4 0 Calma 4 Norte 0 915.8 -0.7 79
2017-10-03 05:00:00 14 0 Calma 4 Oeste 0 915.8 -0.6 77
2017-10-03 04:00:00 14.6 0 Calma 5 Nordeste 0 916.1 -0.6 74
2017-10-03 03:00:00 15.1 0 Calma 5 Oeste 0 916.5 -0.5 71
2017-10-03 02:00:00 16 0 Calma 4 Noroeste 0 916.4 -0.5 67
2017-10-03 01:00:00 16.9 2 Noroeste 5 Norte 0 916.7 0 64
2017-10-03 00:00:00 18.1 2 Norte 7 Norte 0 917 0.6 60
2017-10-02 23:00:00 19.3 0 Calma 9 Norte 0 916.9 1.1 55
2017-10-02 22:00:00 20.7 5 Norte 8 Nordeste 0 916.7 1.4 52
2017-10-02 21:00:00 22.1 2 Este 10 Sur 0 916.4 1.2 47
2017-10-02 20:00:00 24.3 3 Noroeste 15 Norte 0 915.8 0.5 43
2017-10-02 19:00:00 26.9 5 Norte 19 Noroeste 0 915.3 -0.2 38
2017-10-02 18:00:00 27.3 6 Noroeste 19 Noroeste 0 915.2 -0.7 38
2017-10-02 17:00:00 27.5 4 Nordeste 18 Noroeste 0 915.3 -1.3 35
2017-10-02 16:00:00 26.9 9 Norte 22 Noroeste 0 915.5 -1.3 40
2017-10-02 15:00:00 26.8 8 Norte 20 Nordeste 0 915.9 -1.3 39
2017-10-02 14:00:00 24.2 5 Noroeste 26 Nordeste 0 916.6 -0.5 47
2017-10-02 13:00:00 22.9 11 Nordeste 24 Nordeste 0 916.8 -0.1 50
2017-10-02 12:00:00 21.6 4 Noroeste 16 Norte 0 917.2 0.6 49
2017-10-02 11:00:00 20.5 5 Norte 12 Norte 0 917.1 0.8 51
2017-10-02 10:00:00 16.5 4 Este 11 Norte 0 916.9 0.4 67
2017-10-02 09:00:00 12.6 0 Calma 5 Este 0 916.6 0.2 82
2017-10-02 08:00:00 13 3 Noroeste 5 Nordeste 0 916.3 0.2 81
2017-10-02 07:00:00 13.5 2 Noroeste 8 Norte 0 916.5 0.3 79
2017-10-02 06:00:00 14 0 Calma 9 Nordeste 0 916.4 -0.1 77
2017-10-02 05:00:00 13.9 3 Norte 6 Norte 0 916.1 -0.2 77
2017-10-02 04:00:00 13.8 3 Norte 5 Nordeste 0 916.2 -0.3 77
2017-10-02 03:00:00 14.4 0 Calma 8 Noroeste 0 916.5 -0.2 74
2017-10-02 02:00:00 15 4 Norte 17 Norte 0 916.3 -0.2 72
2017-10-02 01:00:00 16 6 Norte 13 Nordeste 0 916.5 0.3 68
2017-10-02 00:00:00 16.4 7 Nordeste 13 Norte 0 916.7 0.7 65
2017-10-01 23:00:00 17.5 2 Norte 9 Nordeste 0 916.5 1.1 61
2017-10-01 22:00:00 18.4 6 Nordeste 12 Noroeste 0 916.2 0.9 57
2017-10-01 21:00:00 19.7 5 Nordeste 18 Norte 0 916 1.3 52
2017-10-01 20:00:00 20.8 13 Nordeste 23 Noroeste 0 915.4 1.3 48
2017-10-01 19:00:00 22.7 9 Norte 26 Este 0 915.3 1.1 43
2017-10-01 18:00:00 24 8 Nordeste 22 Este 0 914.7 0.2 39
2017-10-01 17:00:00 25.5 5 Noroeste 24 Noroeste 0 914.1 -1 33
2017-10-01 16:00:00 25.1 7 Norte 20 Norte 0 914.2 -1.1 34
2017-10-01 15:00:00 24.4 4 Noroeste 15 Noroeste 0 914.5 -0.8 36
2017-10-01 14:00:00 22.6 6 Norte 16 Nordeste 0 915.1 0 41
2017-10-01 13:00:00 20.9 5 Norte 13 Norte 0 915.3 0.8 48
2017-10-01 12:00:00 19.4 4 Norte 11 Norte 0 915.3 0.9 55
2017-10-01 11:00:00 17.3 4 Norte 8 Norte 0 915.1 1.2 65
2017-10-01 10:00:00 15.8 0 Calma 5 Norte 0 914.5 1.1 72
2017-10-01 09:00:00 15 2 Norte 5 Sur 0 914.4 1 75
2017-10-01 08:00:00 15.2 0 Calma 8 Norte 0 913.9 0.7 75
2017-10-01 07:00:00 15 0 Calma 11 Nordeste 0 913.4 0.2 76
2017-10-01 06:00:00 15.1 0 Calma 3 Norte 0 913.4 0.2 76
2017-10-01 05:00:00 15.9 0 Calma 3 Norte 0 913.2 0.1 71
2017-10-01 04:00:00 16.7 0 Calma 5 Norte 0 913.2 0.3 67
2017-10-01 03:00:00 17.7 0 Calma 8 Sudeste 0 913.2 0.8 68
2017-10-01 02:00:00 18.2 4 Sudeste 9 Sudeste 0 913.1 0.7 61
2017-10-01 01:00:00 18.2 0 Calma 10 Sudeste 0 912.9 0.7 53
2017-10-01 00:00:00 19 2 Norte 5 Norte 0 912.4 0.3 50
2017-09-30 23:00:00 20.1 0 Calma 5 Norte 0 912.4 0.6 48
2017-09-30 22:00:00 21.3 3 Nordeste 5 Norte 0 912.2 0.7 44
2017-09-30 21:00:00 22.6 2 Noroeste 9 Noroeste 0 912.1 0.8 40
2017-09-30 20:00:00 23.6 4 Noroeste 16 Noroeste 0 911.8 0.4 37
2017-09-30 19:00:00 24.7 5 Noroeste 16 Noroeste 0 911.5 -0.3 34
2017-09-30 18:00:00 25.5 8 Noroeste 21 Noroeste 0 911.3 -1 33
2017-09-30 17:00:00 25.4 9 Oeste 23 Noroeste 0 911.4 -1.7 34
2017-09-30 16:00:00 25.5 9 Noroeste 22 Sudoeste 0 911.8 -1.7 34
2017-09-30 15:00:00 25.1 9 Noroeste 26 Oeste 0 912.3 -1.7 34
2017-09-30 14:00:00 25.2 4 Oeste 11 Noroeste 0 913.1 -1 38
2017-09-30 13:00:00 23.5 3 Sudeste 10 Sur 0 913.5 -0.8 43
2017-09-30 12:00:00 21.3 4 Sur 6 Sudoeste 0 914 -0.2 48
2017-09-30 11:00:00 17.7 2 Sudoeste 5 Sur 0 914.1 -0.1 65
2017-09-30 10:00:00 15.1 2 Sudeste 4 Sudoeste 0 914.3 -0.1 73
2017-09-30 09:00:00 12.9 3 Oeste 4 Oeste 0 914.2 0 82
2017-09-30 08:00:00 13.1 2 Sur 4 Sur 0 914.2 0 80
2017-09-30 07:00:00 13.5 3 Sudoeste 6 Sudoeste 0 914.4 0 79
2017-09-30 06:00:00 14.1 0 Calma 3 Norte 0 914.2 -0.5 76
2017-09-30 05:00:00 14.8 0 Calma 4 Oeste 0 914.2 -0.5 73
2017-09-30 04:00:00 15.6 3 Oeste 6 Norte 0 914.4 -0.5 72
2017-09-30 03:00:00 16.4 2 Sudoeste 5 Oeste 0 914.7 -0.2 67
2017-09-30 02:00:00 17.4 0 Calma 5 Noroeste 0 914.7 -0.1 59
2017-09-30 01:00:00 18.7 2 Noroeste 14 Sudeste 0 914.9 0.5 48
2017-09-30 00:00:00 20.1 7 Sudeste 21 Sur 0 914.9 1 42
2017-09-29 23:00:00 20.2 4 Sudeste 8 Sudeste 0 914.8 1.4 39
2017-09-29 22:00:00 21.1 3 Este 8 Norte 0 914.4 1.2 37
2017-09-29 21:00:00 22.9 2 Noroeste 8 Oeste 0 913.9 0.8 33
2017-09-29 20:00:00 25.2 3 Oeste 9 Sudoeste 0 913.4 -0.1 28
2017-09-29 19:00:00 27.5 6 Oeste 16 Noroeste 0 913.2 -0.7 23
2017-09-29 18:00:00 28.4 4 Oeste 14 Noroeste 0 913.1 -1.5 23
2017-09-29 17:00:00 28.5 7 Oeste 18 Noroeste 0 913.5 -1.8 24
2017-09-29 16:00:00 28.3 5 Oeste 22 Noroeste 0 913.9 -2.1 25
2017-09-29 15:00:00 27.7 8 Oeste 18 Oeste 0 914.6 -1.9 27
2017-09-29 14:00:00 26.7 5 Noroeste 13 Noroeste 0 915.3 -1.5 34
2017-09-29 13:00:00 24.4 5 Oeste 19 Norte 0 916 -0.7 46
2017-09-29 12:00:00 21.5 4 Norte 10 Noroeste 0 916.5 0.1 54
2017-09-29 11:00:00 18 4 Norte 10 Norte 0 916.8 0.6 69
2017-09-29 10:00:00 15 3 Sur 5 Sur 0 916.7 0.6 77
2017-09-29 09:00:00 12.1 2 Sur 4 Sudoeste 0 916.4 0.4 88
2017-09-29 08:00:00 12.1 0 Calma 3 Sur 0 916.2 0 89
2017-09-29 07:00:00 12.7 0 Calma 2 Sudoeste 0 916.1 -0.5 90
2017-09-29 06:00:00 13.3 0 Calma 2 Sur 0 916 -0.8 88
2017-09-29 05:00:00 13.9 2 Sur 5 Oeste 0 916.2 -0.8 89
2017-09-29 04:00:00 14.5 3 Oeste 5 Oeste 0 916.6 -0.3 87
2017-09-29 03:00:00 15.1 3 Sudeste 11 Sudeste 0 916.8 -0.1 88
2017-09-29 02:00:00 15.8 5 Sudeste 12 Sudeste 0 917 0.3 83
2017-09-29 01:00:00 16.8 6 Sudeste 15 Sudeste 0 916.9 0.4 78
2017-09-29 00:00:00 17.4 4 Sudeste 13 Sur 0 916.9 0.9 73
2017-09-28 23:00:00 18.8 6 Sudeste 17 Sudeste 0 916.7 1.3 66
2017-09-28 22:00:00 20.1 9 Sudeste 19 Sudeste 0 916.5 1.4 56
2017-09-28 21:00:00 21.7 11 Sudeste 21 Sudeste 0 916 1 49
2017-09-28 20:00:00 23.9 6 Sur 17 Sudoeste 0 915.4 0.4 34
2017-09-28 19:00:00 26.6 7 Sur 15 Oeste 0 915.1 -0.3 28
2017-09-28 18:00:00 27.4 9 Sudoeste 21 Sudoeste 0 915 -1 28
2017-09-28 17:00:00 27.7 4 Noroeste 13 Noroeste 0 915 -1.6 26
2017-09-28 16:00:00 27.4 5 Sudeste 14 Sur 0 915.4 -1.6 26
2017-09-28 15:00:00 27.1 5 Sudeste 16 Sudoeste 0 916 -1.6 20
2017-09-28 14:00:00 25.9 7 Sudoeste 16 Oeste 0 916.6 -1.2 28
2017-09-28 13:00:00 24.4 5 Oeste 11 Oeste 0 917 -0.6 36
2017-09-28 12:00:00 22.3 3 Sudoeste 9 Sudoeste 0 917.6 0.5 53
2017-09-28 11:00:00 19.2 3 Sudeste 6 Sudeste 0 917.8 1.3 67
2017-09-28 10:00:00 15.7 2 Noroeste 4 Noroeste 0 917.6 1.4 79
2017-09-28 09:00:00 12.5 0 Calma 7 Nordeste 0 917.1 1 90
2017-09-28 08:00:00 12.2 0 Calma 4 Norte 0 916.5 0.3 89
2017-09-28 07:00:00 12.9 0 Calma 6 Norte 0 916.2 -0.3 89
2017-09-28 06:00:00 13.5 0 Calma 3 Sudoeste 0 916.1 -0.4 87
2017-09-28 05:00:00 14.2 2 Norte 4 Norte 0 916.2 -0.2 87
2017-09-28 04:00:00 14.8 0 Calma 8 Sudeste 0 916.5 0.2 84
2017-09-28 03:00:00 15.9 4 Sudeste 12 Sudeste 0 916.5 0.5 84
2017-09-28 02:00:00 16.4 7 Sudeste 19 Sudeste 0 916.4 1 81
2017-09-28 01:00:00 16.9 10 Sudeste 21 Sudeste 0 916.3 1.1 79
2017-09-28 00:00:00 17.4 6 Sur 12 Sudeste 0 916 1.5 59
2017-09-27 23:00:00 17.6 2 Sur 12 Oeste 0 915.4 1.3 48
2017-09-27 22:00:00 19.3 0 Calma 6 Sudoeste 0 915.2 1.6 41
2017-09-27 21:00:00 20.8 2 Nordeste 8 Sudoeste 0 914.5 1.1 36
2017-09-27 20:00:00 22.2 4 Sudoeste 12 Oeste 0 914.1 1 34
2017-09-27 19:00:00 23.3 6 Sudoeste 16 Sudoeste 0 913.6 0 33
2017-09-27 18:00:00 24.2 8 Sudoeste 17 Sudoeste 0 913.4 -0.5 33
2017-09-27 17:00:00 26 5 Noroeste 15 Sudoeste 0 913.1 -1.3 30
2017-09-27 16:00:00 24.8 5 Sur 19 Sudoeste 0 913.6 -1.1 34
2017-09-27 15:00:00 24.3 5 Oeste 17 Sudoeste 0 913.9 -1.3 37
2017-09-27 14:00:00 23.7 4 Sudoeste 19 Sudeste 0 914.4 -0.8 42
2017-09-27 13:00:00 22.6 7 Sudeste 21 Sudeste 0 914.7 -0.3 50
2017-09-27 12:00:00 20.5 11 Sudeste 20 Sur 0 915.2 0.6 58
2017-09-27 11:00:00 18.1 11 Sudeste 22 Sudeste 0 915.2 0.8 69
2017-09-27 10:00:00 16.9 9 Sudeste 19 Sur 0 915 0.8 76
2017-09-27 09:00:00 14.9 5 Sudeste 18 Sudeste 0 914.6 0.6 84
2017-09-27 08:00:00 14.3 6 Sudeste 15 Sudeste 0 914.4 0.2 86
2017-09-27 07:00:00 14.2 6 Sudeste 15 Sudeste 0 914.2 0.2 86
2017-09-27 06:00:00 13.6 5 Sudeste 12 Sudeste 0 914 -0.4 88
2017-09-27 05:00:00 13.9 3 Sur 8 Sur 0 914.2 -0.2 87
2017-09-27 04:00:00 14.3 4 Sur 10 Sudeste 0 914 -0.5 85
2017-09-27 03:00:00 14.6 4 Sudeste 12 Sudeste 0 914.4 0 84
2017-09-27 02:00:00 15 4 Sudeste 13 Sudeste 0 914.4 0.5 82
2017-09-27 01:00:00 15.4 6 Sudeste 17 Sudeste 0 914.5 1.1 80
2017-09-27 00:00:00 16.1 8 Sudeste 21 Sur 0 914.4 1.7 74
2017-09-26 23:00:00 17.5 9 Sudeste 21 Sudeste 0 913.9 1.7 64
2017-09-26 22:00:00 18.8 7 Sudeste 26 Sudeste 0 913.4 1.8 51
2017-09-26 21:00:00 20.9 2 Norte 11 Oeste 0 912.7 1.2 40
2017-09-26 20:00:00 22.6 4 Oeste 6 Sudoeste 0 912.2 0.6 36
2017-09-26 19:00:00 24.2 4 Sudoeste 14 Oeste 0 911.6 -0.3 32
2017-09-26 18:00:00 25.7 4 Oeste 17 Oeste 0 911.5 -0.9 29
2017-09-26 17:00:00 25.8 7 Oeste 26 Oeste 0 911.6 -1.5 29
2017-09-26 16:00:00 25.3 8 Oeste 13 Oeste 0 911.9 -1.5 25
2017-09-26 15:00:00 24.4 6 Sur 15 Sudeste 0 912.4 -1.2 29
2017-09-26 14:00:00 23.1 5 Noroeste 13 Oeste 0 913.1 -0.8 33
2017-09-26 13:00:00 22 6 Sur 13 Sur 0 913.4 -0.3 43
2017-09-26 12:00:00 20 6 Sur 15 Sudeste 0 913.6 0 51
2017-09-26 11:00:00 17.3 3 Sudoeste 7 Oeste 0 913.9 0.5 53
2017-09-26 10:00:00 14.1 2 Sur 5 Sur 0 913.7 0.7 62
2017-09-26 09:00:00 10.4 3 Sur 5 Sudoeste 0 913.6 0.4 75
2017-09-26 08:00:00 10.4 2 Noroeste 5 Sudoeste 0 913.4 0.3 74
2017-09-26 07:00:00 10.9 3 Este 8 Nordeste 0 913 -0.1 71
2017-09-26 06:00:00 11.3 0 Calma 3 Sudoeste 0 913.2 0 67
2017-09-26 05:00:00 12.2 2 Norte 5 Norte 0 913.1 -0.3 66
2017-09-26 04:00:00 12.7 0 Calma 6 Norte 0 913.1 -0.2 62
2017-09-26 03:00:00 13.4 3 Norte 9 Norte 0 913.2 0 59
2017-09-26 02:00:00 14.4 2 Este 8 Norte 0 913.4 0.8 49
2017-09-26 01:00:00 14.7 2 Norte 8 Norte 0 913.3 1.1 44
2017-09-26 00:00:00 15.6 4 Sur 10 Sur 0 913.2 1.2 41
2017-09-25 23:00:00 17 5 Norte 12 Norte 0 912.6 0.6 37
2017-09-25 22:00:00 19.4 4 Sudeste 10 Sur 0 912.2 0.5 26
2017-09-25 21:00:00 21.5 4 Norte 14 Norte 0 912 0.4 21
2017-09-25 20:00:00 23.3 5 Noroeste 23 Noroeste 0 912 0.2 18
2017-09-25 19:00:00 25.5 8 Noroeste 28 Noroeste 0 911.7 -0.2 18
2017-09-25 18:00:00 26.5 9 Noroeste 30 Noroeste 0 911.6 -0.7 21
2017-09-25 17:00:00 26.4 14 Oeste 34 Sudoeste 0 911.8 -1 25
2017-09-25 16:00:00 26.6 14 Oeste 34 Sudoeste 0 911.9 -1.3 29
2017-09-25 15:00:00 27.2 10 Noroeste 29 Noroeste 0 912.3 -1.3 29
2017-09-25 14:00:00 25.9 13 Oeste 26 Oeste 0 912.8 -1 32
2017-09-25 13:00:00 24.9 5 Sudoeste 14 Noroeste 0 913.2 -0.5 26
2017-09-25 12:00:00 22.9 4 Oeste 9 Oeste 0 913.6 0.1 29
2017-09-25 11:00:00 19.2 4 Sur 8 Sur 0 913.8 0.7 44
2017-09-25 10:00:00 15.8 2 Oeste 4 Sudoeste 0 913.7 1 58
2017-09-25 09:00:00 11.9 0 Calma 4 Sudoeste 0 913.5 0.8 72
2017-09-25 08:00:00 11.9 2 Sur 5 Norte 0 913.1 0.2 71
2017-09-25 07:00:00 12.3 0 Calma 4 Oeste 0 912.7 -0.6 70
2017-09-25 06:00:00 13.1 0 Calma 4 Norte 0 912.7 -1 65
2017-09-25 05:00:00 13.6 3 Norte 6 Nordeste 0 912.9 -1 62
2017-09-25 04:00:00 14.1 3 Norte 5 Norte 0 913.3 -0.6 58
2017-09-25 03:00:00 14.6 0 Calma 4 Sudeste 0 913.7 -0.4 61
2017-09-25 02:00:00 15.3 0 Calma 8 Norte 0 913.9 -0.3 56
2017-09-25 01:00:00 16.4 2 Noroeste 5 Norte 0 913.9 -0.1 51
2017-09-25 00:00:00 17.6 0 Calma 4 Sudoeste 0 914.1 0.7 49
2017-09-24 23:00:00 19.1 0 Calma 8 Norte 0 914.2 0.9 44
2017-09-24 22:00:00 20.9 4 Norte 10 Nordeste 0 914 0.9 38
2017-09-24 21:00:00 23.2 2 Norte 8 Noroeste 0 913.4 0.3 32
2017-09-24 20:00:00 25 5 Noroeste 16 Noroeste 0 913.3 0 27
2017-09-24 19:00:00 27.4 7 Oeste 21 Sudoeste 0 913.1 -0.6 24
2017-09-24 18:00:00 28.2 6 Sudoeste 19 Sudoeste 0 913.1 -0.9 24
2017-09-24 17:00:00 28.5 8 Sudoeste 22 Noroeste 0 913.3 -1.1 24
2017-09-24 16:00:00 28.1 10 Oeste 26 Sudoeste 0 913.7 -1.3 24
2017-09-24 15:00:00 27.7 8 Sudoeste 20 Oeste 0 914 -1.4 26
2017-09-24 14:00:00 27 9 Sudoeste 20 Sudoeste 0 914.4 -1.2 27
2017-09-24 13:00:00 25.7 4 Sur 8 Sur 0 915 -0.3 32
2017-09-24 12:00:00 22.3 5 Sur 9 Sur 0 915.4 0.5 43
2017-09-24 11:00:00 18.2 3 Sudoeste 5 Oeste 0 915.6 0.9 63
2017-09-24 10:00:00 15.3 0 Calma 5 Sudoeste 0 915.3 0.9 73
2017-09-24 09:00:00 11.5 0 Calma 2 Sur 0 914.9 0.7 87
2017-09-24 08:00:00 11.4 0 Calma 3 Sudoeste 0 914.7 0.3 86
2017-09-24 07:00:00 11.8 0 Calma 2 Sudeste 0 914.4 -0.2 83
2017-09-24 06:00:00 12.7 2 Nordeste 5 Noroeste 0 914.2 -0.5 82
2017-09-24 05:00:00 13.2 0 Calma 5 Sudeste 0 914.4 -0.4 77
2017-09-24 04:00:00 13.7 2 Noroeste 5 Norte 0 914.6 -0.1 75
2017-09-24 03:00:00 14.3 2 Noroeste 5 Nordeste 0 914.7 0.3 70
2017-09-24 02:00:00 15.1 0 Calma 11 Sur 0 914.8 0.6 64
2017-09-24 01:00:00 15.7 4 Sur 10 Sudeste 0 914.7 0.8 63
2017-09-24 00:00:00 16.3 2 Este 4 Norte 0 914.4 1.1 62
2017-09-23 23:00:00 17.5 0 Calma 5 Norte 0 914.2 1.5 53
2017-09-23 22:00:00 19.1 4 Noroeste 9 Norte 0 913.9 1.5 46
2017-09-23 21:00:00 21.2 2 Norte 7 Norte 0 913.3 1 41
2017-09-23 20:00:00 23.3 2 Noroeste 7 Norte 0 912.7 0.3 35
2017-09-23 19:00:00 24.7 3 Noroeste 14 Sur 0 912.4 -0.5 31
2017-09-23 18:00:00 26.5 6 Oeste 14 Sudoeste 0 912.3 -1.1 27
2017-09-23 17:00:00 27 8 Sur 19 Sudoeste 0 912.4 -1.4 27
2017-09-23 16:00:00 26.7 5 Sudoeste 14 Sudoeste 0 912.9 -1.3 30
2017-09-23 15:00:00 25.5 8 Sudoeste 17 Sudoeste 0 913.4 -1 35
2017-09-23 14:00:00 24.5 4 Sudoeste 18 Sudeste 0 913.8 -0.5 39
2017-09-23 13:00:00 22.9 9 Sudeste 19 Sur 0 914.2 -0.1 45
2017-09-23 12:00:00 20.3 8 Sur 15 Sur 0 914.4 0.5 51
2017-09-23 11:00:00 17.1 4 Sur 9 Sur 0 914.3 0.5 67
2017-09-23 10:00:00 13.7 3 Oeste 5 Oeste 0 914.3 0.6 78
2017-09-23 09:00:00 10.3 0 Calma 3 Oeste 0 913.9 0.2 89
2017-09-23 08:00:00 10.4 0 Calma 3 Norte 0 913.8 0.3 87
2017-09-23 07:00:00 10.7 0 Calma 4 Norte 0 913.7 -0.1 86
2017-09-23 06:00:00 11.1 2 Norte 6 Norte 0 913.7 -0.1 82
2017-09-23 05:00:00 11.3 2 Oeste 5 Oeste 0 913.5 -0.2 82
2017-09-23 04:00:00 11.9 2 Sudeste 4 Oeste 0 913.8 -0.2 85
2017-09-23 03:00:00 12.6 0 Calma 9 Nordeste 0 913.8 -0.3 78
2017-09-23 02:00:00 13.4 5 Norte 13 Norte 0 913.7 -1.1 78
2017-09-23 01:00:00 13.9 5 Oeste 17 Sur 0 914 0.4 81
2017-09-23 00:00:00 14.2 9 Sur 30 Sudeste 0.6 914.1 1.3 74